Time;durP1;ratioP1;P1;durP2;ratioP2;P2;SDS_P1;SDS_P2;PMS_P1;PMS_P2;Temp;Humidity;BMP_temperature;BMP_pressure;BME280_temperature;BME280_humidity;BME280_pressure;Samples;Min_cycle;Max_cycle;Signal;HPM_P1;HPM_P2
2024/02/01 00:02:09;;;;;;;8.27;4.00;;;6.40;99.90;;;;;;5017420;28;20450;-63
2024/02/01 00:04:36;;;;;;;5.20;3.47;;;6.30;99.90;;;;;;5017127;28;20581;-62
2024/02/01 00:07:03;;;;;;;5.10;3.67;;;6.30;99.90;;;;;;5017394;28;20986;-64
2024/02/01 00:09:30;;;;;;;7.13;4.33;;;6.30;99.90;;;;;;5016789;28;20471;-62
2024/02/01 00:11:57;;;;;;;5.50;3.80;;;6.30;99.90;;;;;;5017013;28;20493;-64
2024/02/01 00:14:24;;;;;;;6.50;3.70;;;6.20;99.90;;;;;;5016796;28;20452;-63
2024/02/01 00:16:51;;;;;;;7.83;4.70;;;6.20;99.90;;;;;;5016912;28;20473;-63
2024/02/01 00:19:19;;;;;;;7.03;3.83;;;6.20;99.90;;;;;;5017720;28;20455;-63
2024/02/01 00:21:46;;;;;;;8.90;3.60;;;6.20;99.90;;;;;;5032166;28;20499;-63
2024/02/01 00:24:13;;;;;;;6.50;4.57;;;6.20;99.90;;;;;;5017006;28;20490;-63
2024/02/01 00:26:40;;;;;;;6.63;4.13;;;6.20;99.90;;;;;;5016530;28;20488;-62
2024/02/01 00:29:09;;;;;;;5.70;4.47;;;6.20;99.90;;;;;;5016630;28;20905;-62
2024/02/01 00:31:36;;;;;;;9.27;4.70;;;6.10;99.90;;;;;;5016706;28;20833;-63
2024/02/01 00:34:03;;;;;;;5.80;3.73;;;6.10;99.90;;;;;;5016903;28;20425;-62
2024/02/01 00:36:31;;;;;;;7.73;4.10;;;6.10;99.90;;;;;;5017009;28;20535;-61
2024/02/01 00:38:58;;;;;;;6.60;3.70;;;6.20;99.90;;;;;;5035795;28;20807;-62
2024/02/01 00:41:25;;;;;;;4.83;3.87;;;6.20;99.90;;;;;;5031126;28;20542;-63
2024/02/01 00:43:52;;;;;;;5.43;3.20;;;6.10;99.90;;;;;;5021041;28;20579;-63
2024/02/01 00:46:19;;;;;;;5.07;4.10;;;6.20;99.90;;;;;;5016554;28;20572;-62
2024/02/01 00:48:46;;;;;;;5.70;4.30;;;6.20;99.90;;;;;;5016688;28;20562;-63
2024/02/01 00:51:16;;;;;;;6.70;4.33;;;6.20;99.90;;;;;;5016390;28;20475;-65
2024/02/01 00:53:44;;;;;;;4.70;3.67;;;6.20;99.90;;;;;;5016488;28;20443;-63
2024/02/01 00:56:11;;;;;;;9.43;4.40;;;6.20;99.90;;;;;;5016393;28;20541;-66
2024/02/01 00:58:38;;;;;;;5.67;3.77;;;6.30;99.90;;;;;;5016263;28;20935;-63
2024/02/01 01:01:05;;;;;;;5.57;3.73;;;6.30;99.90;;;;;;5016002;28;20481;-63
2024/02/01 01:03:31;;;;;;;4.60;3.77;;;6.30;99.90;;;;;;5016180;28;20519;-63
2024/02/01 01:05:58;;;;;;;7.60;4.27;;;6.30;99.90;;;;;;5028653;28;20511;-64
2024/02/01 01:08:25;;;;;;;7.80;4.17;;;6.30;99.90;;;;;;5035709;28;20485;-64
2024/02/01 01:10:53;;;;;;;8.00;4.70;;;6.30;99.90;;;;;;5035913;28;21101;-62
2024/02/01 01:13:20;;;;;;;5.83;3.33;;;6.30;99.90;;;;;;5035631;28;20471;-63
2024/02/01 01:15:47;;;;;;;5.80;4.37;;;6.40;99.90;;;;;;5035505;28;20565;-63
2024/02/01 01:18:17;;;;;;;7.87;4.50;;;6.40;99.90;;;;;;5035214;28;20469;-62
2024/02/01 01:20:44;;;;;;;7.10;4.20;;;6.30;99.90;;;;;;5035825;28;20499;-61
2024/02/01 01:23:13;;;;;;;8.93;4.90;;;6.30;99.90;;;;;;5035651;28;20588;-61
2024/02/01 01:25:39;;;;;;;7.43;4.30;;;6.30;99.90;;;;;;5035615;28;20475;-64
2024/02/01 01:28:08;;;;;;;5.67;3.47;;;6.30;99.90;;;;;;5035317;28;20538;-62
2024/02/01 01:30:35;;;;;;;6.00;4.50;;;6.40;99.90;;;;;;5035568;28;20497;-61
2024/02/01 01:33:02;;;;;;;7.20;5.03;;;6.40;99.90;;;;;;5035561;28;20548;-63
2024/02/01 01:35:28;;;;;;;7.20;4.50;;;6.40;99.90;;;;;;5035593;28;20546;-63
2024/02/01 01:37:58;;;;;;;8.30;4.83;;;6.40;99.90;;;;;;5034537;28;20488;-63
2024/02/01 01:40:25;;;;;;;6.83;4.30;;;6.40;99.90;;;;;;5036108;28;20556;-63
2024/02/01 01:42:52;;;;;;;5.93;4.60;;;6.40;99.90;;;;;;5035081;28;20489;-64
2024/02/01 01:45:21;;;;;;;6.10;4.40;;;6.40;99.90;;;;;;5035069;28;20553;-63
2024/02/01 01:47:49;;;;;;;6.43;4.23;;;6.40;99.90;;;;;;5035378;28;20477;-63
2024/02/01 01:50:16;;;;;;;9.43;4.57;;;6.40;99.90;;;;;;5035160;28;20442;-62
2024/02/01 01:52:45;;;;;;;7.17;4.07;;;6.40;99.90;;;;;;5035118;28;20529;-62
2024/02/01 01:55:14;;;;;;;5.57;3.97;;;6.40;99.90;;;;;;5034739;28;20520;-61
2024/02/01 01:57:41;;;;;;;9.33;4.07;;;6.40;99.90;;;;;;5034971;28;20450;-63
2024/02/01 02:00:10;;;;;;;6.57;4.07;;;6.50;99.90;;;;;;5027385;28;20539;-63
2024/02/01 02:02:39;;;;;;;6.00;3.97;;;6.40;99.90;;;;;;5027206;28;20506;-63
2024/02/01 02:05:07;;;;;;;5.70;4.53;;;6.50;99.90;;;;;;5034717;28;20574;-64
2024/02/01 02:07:34;;;;;;;7.17;4.20;;;6.40;99.90;;;;;;5034445;28;20517;-63
2024/02/01 02:10:03;;;;;;;8.73;4.50;;;6.40;99.90;;;;;;5034351;28;20514;-63
2024/02/01 02:12:30;;;;;;;7.40;3.93;;;6.40;99.90;;;;;;5034885;28;20481;-63
2024/02/01 02:14:57;;;;;;;7.67;4.60;;;6.40;99.90;;;;;;5034513;28;20482;-64
2024/02/01 02:17:25;;;;;;;9.53;4.87;;;6.40;99.90;;;;;;5034645;28;20447;-63
2024/02/01 02:19:53;;;;;;;7.30;3.73;;;6.50;99.90;;;;;;5034358;28;20550;-63
2024/02/01 02:22:22;;;;;;;6.27;3.60;;;6.50;99.90;;;;;;5034233;28;20477;-61
2024/02/01 02:24:49;;;;;;;8.97;4.70;;;6.50;99.90;;;;;;5034367;28;20502;-63
2024/02/01 02:27:20;;;;;;;7.43;5.10;;;6.50;99.90;;;;;;5034348;28;20969;-63
2024/02/01 02:29:46;;;;;;;10.50;4.60;;;6.50;99.90;;;;;;5034289;28;20453;-64
2024/02/01 02:32:13;;;;;;;5.10;3.97;;;6.50;99.90;;;;;;5034647;28;20791;-63
2024/02/01 02:34:40;;;;;;;6.90;4.53;;;6.50;99.90;;;;;;5034382;28;20533;-62
2024/02/01 02:37:08;;;;;;;10.30;4.80;;;6.50;99.90;;;;;;5034017;28;21208;-64
2024/02/01 02:39:37;;;;;;;5.60;4.50;;;6.50;99.90;;;;;;5034026;28;20553;-61
2024/02/01 02:42:05;;;;;;;5.93;4.70;;;6.40;99.90;;;;;;5034163;28;20536;-64
2024/02/01 02:44:32;;;;;;;6.27;5.10;;;6.30;99.90;;;;;;5033988;28;20482;-63
2024/02/01 02:46:59;;;;;;;12.40;4.50;;;6.30;99.90;;;;;;5034299;28;20474;-63
2024/02/01 02:49:26;;;;;;;6.83;4.70;;;6.30;99.90;;;;;;5034054;28;20469;-62
2024/02/01 02:51:52;;;;;;;7.60;5.00;;;6.20;99.90;;;;;;5080820;22;20575;-61
2024/02/01 02:54:19;;;;;;;6.27;4.50;;;6.20;99.90;;;;;;5042601;28;20501;-63
2024/02/01 02:56:51;;;;;;;7.57;4.47;;;6.20;99.90;;;;;;5033737;28;20473;-63
2024/02/01 02:59:18;;;;;;;7.93;4.67;;;6.20;99.90;;;;;;5033858;28;20470;-62
2024/02/01 03:01:45;;;;;;;8.33;3.97;;;6.10;99.90;;;;;;5034035;28;20527;-63
2024/02/01 03:04:14;;;;;;;6.90;4.13;;;6.10;99.90;;;;;;5033988;28;20600;-61
2024/02/01 03:06:41;;;;;;;6.00;4.20;;;6.10;99.90;;;;;;5033739;28;20788;-63
2024/02/01 03:09:16;;;;;;;8.50;5.30;;;6.10;99.90;;;;;;5033918;28;20455;-63
2024/02/01 03:11:43;;;;;;;6.73;4.53;;;6.10;99.90;;;;;;5033802;28;20434;-62
2024/02/01 03:14:11;;;;;;;10.87;4.80;;;6.00;99.90;;;;;;5037822;28;20439;-62
2024/02/01 03:16:38;;;;;;;10.67;6.60;;;6.00;99.90;;;;;;5037790;28;20498;-64
2024/02/01 03:19:11;;;;;;;7.97;4.13;;;6.00;99.90;;;;;;5038037;28;20529;-63
2024/02/01 03:21:40;;;;;;;6.87;4.80;;;6.00;99.90;;;;;;5037706;28;20480;-61
2024/02/01 03:24:07;;;;;;;5.97;4.60;;;6.10;99.90;;;;;;5037680;28;20492;-63
2024/02/01 03:26:35;;;;;;;6.07;4.27;;;6.00;99.90;;;;;;5037739;28;20535;-63
2024/02/01 03:29:02;;;;;;;9.87;5.93;;;6.00;99.90;;;;;;5037917;28;20528;-62
2024/02/01 03:31:34;;;;;;;9.30;4.40;;;6.00;99.90;;;;;;5037471;28;20529;-63
2024/02/01 03:34:05;;;;;;;6.47;5.20;;;6.00;99.90;;;;;;5037398;28;20450;-63
2024/02/01 03:36:34;;;;;;;5.20;4.40;;;6.00;99.90;;;;;;5037779;28;20458;-63
2024/02/01 03:39:01;;;;;;;10.30;5.33;;;5.90;99.90;;;;;;5037206;28;20941;-63
2024/02/01 03:41:29;;;;;;;6.50;4.60;;;5.90;99.90;;;;;;5037634;28;20527;-64
2024/02/01 03:43:55;;;;;;;8.57;5.30;;;5.90;99.90;;;;;;5037238;28;21038;-63
2024/02/01 03:46:24;;;;;;;7.80;5.37;;;5.80;99.90;;;;;;5037097;28;20970;-64
2024/02/01 03:48:52;;;;;;;8.20;5.73;;;5.80;99.90;;;;;;5037218;28;20474;-63
2024/02/01 03:51:20;;;;;;;10.80;5.77;;;5.80;99.90;;;;;;5037179;28;20435;-64
2024/02/01 03:53:47;;;;;;;8.93;4.80;;;5.80;99.90;;;;;;5036901;28;20481;-63
2024/02/01 03:56:14;;;;;;;7.47;4.90;;;5.80;99.90;;;;;;5037042;28;20521;-62
2024/02/01 03:58:43;;;;;;;7.77;5.13;;;5.80;99.90;;;;;;5037112;28;20459;-63
2024/02/01 04:01:12;;;;;;;8.57;4.80;;;5.80;99.90;;;;;;5037270;28;20511;-62
2024/02/01 04:03:40;;;;;;;10.40;5.67;;;5.80;99.90;;;;;;5037174;28;20446;-63
2024/02/01 04:06:08;;;;;;;7.40;4.63;;;5.80;99.90;;;;;;5036994;28;20482;-63
2024/02/01 04:08:35;;;;;;;7.43;5.83;;;5.80;99.90;;;;;;5037113;28;20533;-63
2024/02/01 04:11:02;;;;;;;16.77;6.10;;;5.80;99.90;;;;;;5036522;28;20442;-63
2024/02/01 04:13:29;;;;;;;8.03;4.93;;;5.80;99.90;;;;;;5036939;28;20554;-62
2024/02/01 04:15:57;;;;;;;7.00;5.07;;;5.80;99.90;;;;;;5036674;28;20490;-63
2024/02/01 04:18:24;;;;;;;8.73;4.60;;;5.80;99.90;;;;;;5036466;28;20919;-63
2024/02/01 04:20:51;;;;;;;8.30;5.27;;;5.80;99.90;;;;;;5036674;28;20452;-62
2024/02/01 04:23:19;;;;;;;7.57;5.53;;;5.80;99.90;;;;;;5036415;28;20798;-63
2024/02/01 04:25:46;;;;;;;11.07;5.90;;;5.80;99.90;;;;;;5036305;28;20521;-64
2024/02/01 04:28:14;;;;;;;10.63;6.40;;;5.80;99.90;;;;;;5036701;28;20473;-64
2024/02/01 04:30:50;;;;;;;7.50;5.33;;;5.80;99.90;;;;;;5036608;28;20430;-63
2024/02/01 04:33:17;;;;;;;7.43;5.17;;;5.80;99.90;;;;;;5035733;28;20540;-63
2024/02/01 04:35:44;;;;;;;9.57;5.87;;;5.80;99.90;;;;;;5035338;28;20451;-62
2024/02/01 04:38:11;;;;;;;6.73;3.80;;;5.80;99.90;;;;;;5042787;28;21001;-62
2024/02/01 04:40:39;;;;;;;8.47;6.00;;;5.90;99.90;;;;;;5055273;28;20473;-63
2024/02/01 04:43:06;;;;;;;7.30;5.50;;;5.80;99.90;;;;;;5055322;28;20897;-64
2024/02/01 04:45:36;;;;;;;9.77;6.53;;;5.80;99.90;;;;;;5055335;28;20500;-62
2024/02/01 04:48:10;;;;;;;11.30;5.47;;;5.80;99.90;;;;;;5055389;28;20504;-62
2024/02/01 04:50:37;;;;;;;8.70;5.57;;;5.90;99.90;;;;;;5056197;28;20507;-62
2024/02/01 04:53:04;;;;;;;10.63;6.03;;;5.90;99.90;;;;;;5055799;28;20457;-62
2024/02/01 04:55:31;;;;;;;11.03;6.07;;;5.90;99.90;;;;;;5055831;28;20997;-62
2024/02/01 04:57:59;;;;;;;7.30;5.67;;;5.90;99.90;;;;;;5055792;28;20557;-62
2024/02/01 05:00:27;;;;;;;8.30;6.00;;;5.90;99.90;;;;;;5055728;28;20525;-62
2024/02/01 05:02:54;;;;;;;11.00;6.70;;;5.90;99.90;;;;;;5055843;28;20479;-63
2024/02/01 05:05:21;;;;;;;10.57;6.10;;;5.80;99.90;;;;;;5055602;28;20973;-61
2024/02/01 05:07:48;;;;;;;8.93;6.33;;;5.80;99.90;;;;;;5055995;28;20936;-63
2024/02/01 05:10:15;;;;;;;10.03;8.30;;;5.80;99.90;;;;;;5055602;28;20913;-61
2024/02/01 05:12:42;;;;;;;10.87;7.50;;;5.80;99.90;;;;;;5055613;28;20539;-61
2024/02/01 05:15:12;;;;;;;9.37;6.30;;;5.90;99.90;;;;;;5055512;28;20440;-63
2024/02/01 05:17:40;;;;;;;10.00;5.93;;;5.90;99.90;;;;;;5055814;28;20866;-65
2024/02/01 05:20:10;;;;;;;10.13;7.47;;;6.00;99.90;;;;;;5055691;28;20976;-63
2024/02/01 05:22:37;;;;;;;14.10;8.20;;;6.00;99.90;;;;;;5055287;28;20461;-63
2024/02/01 05:25:14;;;;;;;11.33;7.23;;;6.00;99.90;;;;;;5055519;28;20525;-62
2024/02/01 05:27:44;;;;;;;14.63;7.70;;;6.00;99.90;;;;;;5055608;28;20436;-63
2024/02/01 05:30:15;;;;;;;10.87;7.60;;;6.00;99.90;;;;;;5055518;28;20502;-62
2024/02/01 05:32:51;;;;;;;10.23;6.53;;;6.10;99.90;;;;;;5055555;28;20450;-62
2024/02/01 05:35:18;;;;;;;8.50;5.33;;;6.10;99.90;;;;;;5054538;28;20430;-63
2024/02/01 05:37:46;;;;;;;11.20;7.60;;;6.10;99.90;;;;;;5055459;28;20440;-62
2024/02/01 05:40:16;;;;;;;11.37;7.83;;;6.10;99.90;;;;;;5055250;28;20473;-63
2024/02/01 05:42:44;;;;;;;10.70;7.23;;;6.10;99.90;;;;;;5055191;28;20548;-64
2024/02/01 05:45:14;;;;;;;11.13;7.33;;;6.10;99.90;;;;;;5055048;28;20873;-62
2024/02/01 05:47:41;;;;;;;10.40;7.07;;;6.20;99.90;;;;;;5054655;28;20563;-63
2024/02/01 05:50:09;;;;;;;10.27;6.97;;;6.20;99.90;;;;;;5054847;28;20839;-63
2024/02/01 05:52:37;;;;;;;11.07;6.67;;;6.30;99.90;;;;;;5054486;28;20453;-61
2024/02/01 05:55:05;;;;;;;9.97;6.20;;;6.30;99.90;;;;;;5055139;28;20441;-63
2024/02/01 05:57:32;;;;;;;19.63;8.23;;;6.30;99.90;;;;;;5054877;28;20468;-62
2024/02/01 06:00:00;;;;;;;10.93;7.03;;;6.30;99.90;;;;;;5041220;28;20514;-62
2024/02/01 06:02:28;;;;;;;10.60;7.83;;;6.40;99.90;;;;;;5054197;28;20468;-63
2024/02/01 06:04:55;;;;;;;13.00;6.80;;;6.30;99.90;;;;;;5052561;28;20589;-62
2024/02/01 06:07:22;;;;;;;15.63;7.97;;;6.30;99.90;;;;;;5050000;28;20454;-63
2024/02/01 06:09:49;;;;;;;19.23;8.40;;;6.30;99.90;;;;;;5054761;28;20508;-61
2024/02/01 06:12:16;;;;;;;14.23;7.10;;;6.30;99.90;;;;;;5054623;28;20775;-62
2024/02/01 06:14:43;;;;;;;8.97;6.10;;;6.40;99.90;;;;;;5049304;28;20454;-62
2024/02/01 06:17:10;;;;;;;9.50;7.07;;;6.40;99.90;;;;;;5042903;28;20470;-63
2024/02/01 06:19:40;;;;;;;10.63;7.07;;;6.40;99.90;;;;;;5042152;28;20433;-63
2024/02/01 06:22:09;;;;;;;11.90;7.80;;;6.40;99.90;;;;;;5038875;28;20551;-62
2024/02/01 06:24:36;;;;;;;16.50;8.30;;;6.40;99.90;;;;;;5044590;28;20477;-63
2024/02/01 06:27:04;;;;;;;10.73;7.90;;;6.40;99.90;;;;;;5043770;28;20547;-63
2024/02/01 06:29:30;;;;;;;11.20;7.83;;;6.40;99.90;;;;;;5046787;28;20456;-63
2024/02/01 06:31:57;;;;;;;11.93;8.37;;;6.40;99.90;;;;;;5040053;28;20442;-62
2024/02/01 06:34:28;;;;;;;14.73;8.30;;;6.40;99.90;;;;;;5044327;28;20443;-63
2024/02/01 06:37:00;;;;;;;15.37;8.63;;;6.40;99.90;;;;;;5042244;28;20970;-63
2024/02/01 06:39:48;;;;;;;14.87;7.27;;;6.40;99.90;;;;;;5047016;28;20519;-63
2024/02/01 06:42:24;;;;;;;11.10;8.00;;;6.50;99.90;;;;;;5044058;28;20441;-63
2024/02/01 06:45:08;;;;;;;11.83;7.30;;;6.50;99.90;;;;;;5041161;28;20531;-63
2024/02/01 06:47:38;;;;;;;12.20;8.83;;;6.50;99.90;;;;;;5040434;28;20458;-62
2024/02/01 06:50:15;;;;;;;13.00;7.73;;;6.50;99.90;;;;;;5052208;28;20531;-62
2024/02/01 06:52:45;;;;;;;15.47;9.10;;;6.50;99.90;;;;;;5042632;28;20457;-63
2024/02/01 06:55:43;;;;;;;9.67;7.33;;;6.50;99.90;;;;;;5036210;28;20482;-63
2024/02/01 06:58:17;;;;;;;14.13;8.30;;;6.60;99.90;;;;;;5034807;28;20444;-63
2024/02/01 07:01:02;;;;;;;13.57;8.13;;;6.60;99.90;;;;;;5043104;28;20554;-60
2024/02/01 07:03:51;;;;;;;11.80;7.67;;;6.60;99.90;;;;;;5033927;28;20530;-62
2024/02/01 07:09:27;;;;;;;10.10;7.60;;;6.70;99.90;;;;;;5026435;28;20439;-62
2024/02/01 07:12:18;;;;;;;14.37;8.43;;;6.70;99.90;;;;;;5033960;28;20470;-62
2024/02/01 07:14:58;;;;;;;9.77;7.60;;;6.70;99.90;;;;;;5033762;28;20466;-65
2024/02/01 07:17:28;;;;;;;12.40;9.07;;;6.70;99.90;;;;;;5033821;28;20541;-64
2024/02/01 07:19:56;;;;;;;11.53;7.93;;;6.80;99.90;;;;;;5033766;28;20539;-62
2024/02/01 07:22:39;;;;;;;10.30;7.90;;;6.80;99.90;;;;;;5033837;28;20464;-62
2024/02/01 07:25:23;;;;;;;10.53;7.90;;;6.80;99.90;;;;;;5033976;28;20470;-62
2024/02/01 07:58:19;;;;;;;10.30;8.20;;;7.20;99.90;;;;;;5034471;28;20915;-62
2024/02/01 08:00:51;;;;;;;7.43;6.67;;;7.20;99.90;;;;;;5037717;28;20449;-64
2024/02/01 08:03:32;;;;;;;9.40;6.80;;;7.20;99.90;;;;;;5037935;28;21005;-62
2024/02/01 08:08:44;;;;;;;12.63;6.93;;;7.30;99.90;;;;;;5037587;28;20469;-63
2024/02/01 08:11:17;;;;;;;7.17;5.83;;;7.20;99.90;;;;;;5037125;28;20448;-63
2024/02/01 08:13:49;;;;;;;8.77;6.17;;;7.30;99.90;;;;;;5037173;28;20432;-63
2024/02/01 08:16:18;;;;;;;10.97;6.00;;;7.30;99.90;;;;;;5037101;28;20943;-63
2024/02/01 08:18:45;;;;;;;8.50;6.10;;;7.30;99.90;;;;;;5037239;28;20916;-63
2024/02/01 08:21:16;;;;;;;6.53;5.57;;;7.30;99.90;;;;;;5037413;28;20475;-62
2024/02/01 08:23:44;;;;;;;7.13;5.30;;;7.30;99.90;;;;;;5037638;28;20862;-62
2024/02/01 08:26:12;;;;;;;8.77;4.07;;;7.30;99.90;;;;;;5037613;28;20565;-62
2024/02/01 08:28:39;;;;;;;11.10;4.63;;;7.40;99.90;;;;;;5036940;28;20974;-61
2024/02/01 08:31:13;;;;;;;8.93;6.93;;;7.40;99.90;;;;;;5037242;28;20457;-63
2024/02/01 08:33:42;;;;;;;8.97;5.20;;;7.40;99.90;;;;;;5036882;28;20548;-63
2024/02/01 08:36:11;;;;;;;8.80;4.23;;;7.40;99.90;;;;;;5036945;28;20474;-61
2024/02/01 08:38:38;;;;;;;5.30;3.73;;;7.50;99.90;;;;;;5036956;28;20438;-63
2024/02/01 08:41:05;;;;;;;12.97;4.87;;;7.50;99.90;;;;;;5036944;28;20475;-62
2024/02/01 08:43:38;;;;;;;15.60;4.40;;;7.50;99.90;;;;;;5036677;28;20493;-62
2024/02/01 08:46:07;;;;;;;6.00;3.60;;;7.40;99.90;;;;;;5036827;28;20537;-62
2024/02/01 08:48:34;;;;;;;5.90;4.00;;;7.40;99.90;;;;;;5036991;28;20412;-63
2024/02/01 08:51:01;;;;;;;6.97;3.93;;;7.40;99.90;;;;;;5036560;28;20535;-62
2024/02/01 08:53:28;;;;;;;11.37;4.73;;;7.40;99.90;;;;;;5083028;23;20583;-63
2024/02/01 08:55:54;;;;;;;6.80;3.97;;;7.40;99.90;;;;;;5055091;28;20566;-60
2024/02/01 08:58:21;;;;;;;17.20;6.80;;;7.40;99.90;;;;;;5053911;28;20530;-63
2024/02/01 09:00:49;;;;;;;6.87;2.90;;;7.50;99.90;;;;;;5048973;28;20477;-62
2024/02/01 09:03:17;;;;;;;4.20;3.03;;;7.60;99.90;;;;;;5056069;28;20449;-62
2024/02/01 09:05:45;;;;;;;4.33;3.50;;;7.70;99.90;;;;;;5054549;28;20591;-63
2024/02/01 09:08:13;;;;;;;6.90;3.50;;;7.70;99.90;;;;;;5060462;28;20472;-65
2024/02/01 09:10:50;;;;;;;13.40;5.37;;;7.70;99.90;;;;;;5056698;28;20508;-66
2024/02/01 09:13:17;;;;;;;7.30;3.70;;;7.80;99.90;;;;;;5057782;28;20458;-62
2024/02/01 09:15:44;;;;;;;10.40;4.40;;;8.30;99.90;;;;;;5060008;28;20457;-62
2024/02/01 09:18:11;;;;;;;9.30;3.67;;;8.10;99.90;;;;;;5073110;28;20465;-62
2024/02/01 09:20:40;;;;;;;3.97;2.93;;;8.00;99.90;;;;;;5059440;28;20475;-63
2024/02/01 09:23:07;;;;;;;4.47;2.80;;;8.00;99.90;;;;;;5055894;28;20453;-62
2024/02/01 09:25:35;;;;;;;4.80;2.30;;;8.10;99.90;;;;;;5055132;28;20469;-64
2024/02/01 09:28:11;;;;;;;10.73;3.30;;;8.00;99.90;;;;;;5058686;28;20900;-64
2024/02/01 09:30:45;;;;;;;12.03;3.70;;;8.00;99.90;;;;;;5055290;28;20554;-63
2024/02/01 09:33:12;;;;;;;6.93;2.60;;;8.00;99.90;;;;;;5055193;28;20441;-65
2024/02/01 09:35:40;;;;;;;5.57;2.40;;;8.10;99.90;;;;;;5055047;28;20477;-63
2024/02/01 09:38:07;;;;;;;9.60;2.33;;;8.10;99.90;;;;;;5049418;28;20450;-65
2024/02/01 09:40:41;;;;;;;7.00;2.50;;;8.20;99.90;;;;;;5055168;28;20441;-64
2024/02/01 09:43:17;;;;;;;9.13;2.50;;;8.30;99.90;;;;;;5038235;28;20500;-64
2024/02/01 09:45:44;;;;;;;5.70;2.67;;;8.40;99.90;;;;;;5047131;28;20469;-63
2024/02/01 09:48:15;;;;;;;6.80;2.70;;;8.50;99.90;;;;;;5054888;28;20816;-63
2024/02/01 09:50:47;;;;;;;8.40;2.10;;;8.70;99.90;;;;;;5059529;28;20497;-64
2024/02/01 09:53:21;;;;;;;12.73;2.50;;;9.40;99.90;;;;;;5053307;28;20471;-62
2024/02/01 09:55:48;;;;;;;10.10;2.07;;;10.10;99.90;;;;;;5040655;28;20478;-64
2024/02/01 09:58:15;;;;;;;4.03;1.93;;;10.80;99.90;;;;;;5056249;28;20680;-64
2024/02/01 10:00:41;;;;;;;4.63;2.17;;;11.30;99.90;;;;;;5044436;28;20471;-64
2024/02/01 10:03:08;;;;;;;4.63;2.10;;;11.90;99.90;;;;;;5054543;28;20509;-64
2024/02/01 10:05:36;;;;;;;6.43;2.40;;;12.60;99.90;;;;;;5053303;28;20570;-64
2024/02/01 10:08:12;;;;;;;4.17;1.90;;;13.00;99.90;;;;;;5053783;28;20613;-65
2024/02/01 10:10:39;;;;;;;7.70;2.60;;;13.70;99.90;;;;;;5054742;28;20428;-66
2024/02/01 10:13:10;;;;;;;5.73;1.90;;;14.50;99.90;;;;;;5052260;28;20553;-65
2024/02/01 10:15:38;;;;;;;9.30;2.53;;;14.80;99.90;;;;;;5048790;28;20458;-66
2024/02/01 10:18:07;;;;;;;7.53;2.23;;;14.90;99.90;;;;;;5060971;28;20705;-62
2024/02/01 10:20:41;;;;;;;5.43;1.80;;;14.30;99.90;;;;;;5069560;28;20490;-62
2024/02/01 10:23:11;;;;;;;5.23;1.63;;;14.20;99.90;;;;;;5074171;28;20483;-65
2024/02/01 10:25:42;;;;;;;5.03;2.10;;;14.50;99.90;;;;;;5075244;28;20503;-64
2024/02/01 10:28:11;;;;;;;8.03;2.63;;;14.40;99.90;;;;;;5069268;28;20432;-59
2024/02/01 10:30:42;;;;;;;7.83;2.60;;;14.80;99.90;;;;;;5071446;28;20476;-62
2024/02/01 10:33:11;;;;;;;4.60;1.70;;;14.60;99.40;;;;;;5061139;28;20441;-62
2024/02/01 10:35:38;;;;;;;4.17;1.70;;;13.80;99.70;;;;;;5055488;28;20437;-60
2024/02/01 10:38:13;;;;;;;5.00;1.93;;;14.00;99.90;;;;;;5056575;28;20475;-63
2024/02/01 10:40:58;;;;;;;5.47;1.83;;;14.60;99.90;;;;;;5075408;28;20479;-64
2024/02/01 10:43:27;;;;;;;4.10;1.50;;;14.30;97.90;;;;;;5074981;28;20456;-63
2024/02/01 10:46:06;;;;;;;4.63;2.20;;;13.50;99.60;;;;;;5075157;28;20541;-64
2024/02/01 10:48:36;;;;;;;4.73;2.20;;;13.60;99.90;;;;;;5075645;28;20531;-64
2024/02/01 10:51:10;;;;;;;3.97;1.57;;;13.50;99.90;;;;;;5075720;28;20452;-61
2024/02/01 10:53:41;;;;;;;4.20;1.50;;;13.00;99.90;;;;;;5075190;28;20481;-60
2024/02/01 10:56:14;;;;;;;3.20;1.77;;;13.00;99.90;;;;;;5075632;28;20423;-64
2024/02/01 10:58:45;;;;;;;10.47;2.10;;;12.80;99.90;;;;;;5058296;28;20486;-62
2024/02/01 11:01:13;;;;;;;5.93;2.03;;;12.90;99.90;;;;;;5075078;28;20447;-65
2024/02/01 11:03:44;;;;;;;6.67;2.40;;;12.90;99.90;;;;;;5075103;28;20416;-64
2024/02/01 11:06:13;;;;;;;10.00;2.03;;;12.30;99.90;;;;;;5068990;28;20487;-64
2024/02/01 11:08:41;;;;;;;3.90;1.77;;;11.50;99.90;;;;;;5055288;28;20453;-63
2024/02/01 11:11:17;;;;;;;6.80;1.50;;;11.10;99.90;;;;;;5072442;28;20463;-62
2024/02/01 11:13:46;;;;;;;3.43;1.53;;;10.60;99.90;;;;;;5073909;28;20478;-63
2024/02/01 11:16:13;;;;;;;5.83;1.90;;;10.50;99.90;;;;;;5074955;28;20482;-63
2024/02/01 11:18:50;;;;;;;5.17;2.20;;;10.30;99.90;;;;;;5075830;28;20468;-65
2024/02/01 11:21:28;;;;;;;3.03;1.57;;;10.20;99.90;;;;;;5075634;28;20649;-65
2024/02/01 11:24:05;;;;;;;5.53;1.93;;;10.00;99.90;;;;;;5075201;28;20485;-64
2024/02/01 11:26:39;;;;;;;6.80;1.90;;;9.70;99.90;;;;;;5075722;28;20470;-63
2024/02/01 11:29:08;;;;;;;6.77;1.50;;;9.50;99.90;;;;;;5075825;28;20522;-65
2024/02/01 11:31:35;;;;;;;6.43;2.27;;;9.30;99.90;;;;;;5074896;28;20466;-65
2024/02/01 11:34:06;;;;;;;7.23;1.57;;;9.10;99.90;;;;;;5076606;28;20538;-63
2024/02/01 11:36:34;;;;;;;7.80;2.27;;;9.00;99.90;;;;;;5079092;28;20428;-63
2024/02/01 11:39:02;;;;;;;8.47;1.97;;;8.90;99.90;;;;;;5078635;28;20443;-65
2024/02/01 11:41:30;;;;;;;4.50;1.90;;;8.80;99.90;;;;;;5078628;28;20435;-67
2024/02/01 11:44:00;;;;;;;5.33;1.70;;;8.70;99.90;;;;;;5075762;28;20481;-61
2024/02/01 11:46:27;;;;;;;13.27;3.70;;;8.80;99.90;;;;;;5077621;28;20516;-64
2024/02/01 11:48:54;;;;;;;2.70;1.23;;;8.80;99.90;;;;;;5069414;28;20458;-58
2024/02/01 11:51:21;;;;;;;4.80;1.67;;;8.90;99.90;;;;;;5077007;28;20482;-65
2024/02/01 11:53:51;;;;;;;8.70;1.50;;;8.90;99.90;;;;;;5072863;28;20446;-63
2024/02/01 11:56:18;;;;;;;6.23;1.20;;;9.00;99.90;;;;;;5081988;28;20429;-65
2024/02/01 11:58:47;;;;;;;7.53;2.23;;;9.00;99.90;;;;;;5077236;28;20431;-63
2024/02/01 12:01:19;;;;;;;10.93;2.20;;;8.90;99.90;;;;;;5077429;28;20461;-64
2024/02/01 12:03:51;;;;;;;9.30;2.50;;;8.90;99.90;;;;;;5069173;28;20477;-66
2024/02/01 12:06:19;;;;;;;6.50;2.17;;;8.90;99.90;;;;;;5060287;28;20460;-64
2024/02/01 12:08:48;;;;;;;4.30;2.10;;;8.90;99.90;;;;;;5059265;28;20455;-64
2024/02/01 12:11:17;;;;;;;1.80;1.00;;;8.90;99.90;;;;;;5057846;28;20454;-63
2024/02/01 12:13:48;;;;;;;3.67;2.97;;;9.00;99.90;;;;;;5069479;28;20437;-62
2024/02/01 12:16:26;;;;;;;3.73;1.20;;;8.90;99.90;;;;;;5077922;28;20461;-65
2024/02/01 12:18:54;;;;;;;8.70;1.90;;;9.00;99.90;;;;;;5077750;28;20449;-62
2024/02/01 12:21:26;;;;;;;7.83;1.97;;;8.90;99.90;;;;;;5076399;28;20526;-63
2024/02/01 12:23:58;;;;;;;9.00;2.27;;;8.90;99.90;;;;;;5076352;28;20487;-64
2024/02/01 12:26:28;;;;;;;5.33;1.77;;;8.90;99.90;;;;;;5078033;28;20454;-60
2024/02/01 12:28:56;;;;;;;4.80;1.57;;;8.70;99.90;;;;;;5077053;28;20463;-63
2024/02/01 12:31:25;;;;;;;4.73;2.03;;;8.60;99.90;;;;;;5077434;28;20494;-64
2024/02/01 12:33:55;;;;;;;8.63;2.10;;;8.60;99.90;;;;;;5078390;28;20434;-63
2024/02/01 12:36:22;;;;;;;10.37;2.33;;;8.60;99.90;;;;;;5077630;28;20462;-62
2024/02/01 12:38:52;;;;;;;5.10;1.77;;;8.70;99.90;;;;;;5077571;28;20443;-65
2024/02/01 12:41:22;;;;;;;4.37;1.80;;;8.70;99.90;;;;;;5075119;28;20453;-63
2024/02/01 12:43:51;;;;;;;8.53;1.87;;;8.70;99.90;;;;;;5077196;28;20427;-63
2024/02/01 12:46:23;;;;;;;15.93;2.30;;;8.80;99.90;;;;;;5077367;28;20515;-63
2024/02/01 12:48:51;;;;;;;8.67;2.43;;;8.90;99.90;;;;;;5077795;28;20509;-63
2024/02/01 12:51:22;;;;;;;9.90;2.70;;;8.90;99.90;;;;;;5077615;28;20438;-63
2024/02/01 12:53:49;;;;;;;8.40;1.67;;;9.00;99.90;;;;;;5077019;28;20458;-60
2024/02/01 12:56:20;;;;;;;5.13;1.90;;;8.90;99.90;;;;;;5075021;28;20471;-62
2024/02/01 12:58:47;;;;;;;11.40;2.30;;;8.90;99.90;;;;;;5076798;28;20442;-61
2024/02/01 13:01:16;;;;;;;9.53;1.50;;;8.90;99.90;;;;;;5073770;28;20471;-64
2024/02/01 13:03:44;;;;;;;14.47;1.80;;;8.90;99.90;;;;;;5062925;28;20420;-59
2024/02/01 13:06:14;;;;;;;4.90;1.60;;;8.80;99.90;;;;;;5073254;28;20455;-63
2024/02/01 13:08:42;;;;;;;13.93;2.07;;;8.70;99.90;;;;;;5077142;28;20449;-62
2024/02/01 13:11:09;;;;;;;8.60;2.53;;;8.70;99.90;;;;;;5076060;28;20438;-63
2024/02/01 13:13:36;;;;;;;7.70;1.90;;;8.80;99.90;;;;;;5077148;28;20447;-61
2024/02/01 13:16:03;;;;;;;6.90;1.43;;;8.70;99.90;;;;;;5076817;28;20481;-65
2024/02/01 13:18:30;;;;;;;8.20;2.23;;;8.60;99.90;;;;;;5077798;28;20446;-62
2024/02/01 13:20:57;;;;;;;7.23;1.60;;;8.50;99.90;;;;;;5077216;28;20500;-62
2024/02/01 13:23:30;;;;;;;16.93;2.50;;;8.40;99.90;;;;;;5077123;28;20501;-63
2024/02/01 13:25:59;;;;;;;6.27;1.77;;;8.40;99.90;;;;;;5077276;28;20431;-63
2024/02/01 13:28:26;;;;;;;8.80;1.50;;;8.50;99.90;;;;;;5077761;28;20486;-61
2024/02/01 13:30:53;;;;;;;12.10;3.33;;;8.40;99.90;;;;;;5077392;28;20467;-64
2024/02/01 13:33:26;;;;;;;8.00;1.70;;;8.40;99.90;;;;;;5077305;28;20449;-65
2024/02/01 13:35:56;;;;;;;8.13;2.30;;;8.40;99.90;;;;;;5076832;28;20485;-65
2024/02/01 13:38:24;;;;;;;14.13;2.30;;;8.50;99.90;;;;;;5076411;28;20457;-62
2024/02/01 13:40:54;;;;;;;6.17;2.47;;;8.50;99.90;;;;;;5075821;28;20473;-65